Time;durP1;ratioP1;P1;durP2;ratioP2;P2;SDS_P1;SDS_P2;PMS_P1;PMS_P2;Temp;Humidity;BMP_temperature;BMP_pressure;BME280_temperature;BME280_humidity;BME280_pressure;Samples;Min_cycle;Max_cycle;Signal;HPM_P1;HPM_P2
2023/07/27 00:00:27;;;;;;;10.70;9.68;;;;;;;;;;4988506;28;20042;-73
2023/07/27 00:02:53;;;;;;;11.50;10.55;;;;;;;;;;4988407;28;20026;-73
2023/07/27 00:05:18;;;;;;;10.55;9.75;;;;;;;;;;4988148;28;20087;-70
2023/07/27 00:07:44;;;;;;;11.13;10.15;;;;;;;;;;4987118;28;20105;-73
2023/07/27 00:10:09;;;;;;;11.45;10.27;;;;;;;;;;4987883;28;20037;-73
2023/07/27 00:12:35;;;;;;;11.23;10.02;;;;;;;;;;4984787;28;20037;-73
2023/07/27 00:15:01;;;;;;;10.48;9.68;;;;;;;;;;4986382;28;20554;-73
2023/07/27 00:17:26;;;;;;;12.95;10.35;;;;;;;;;;4988021;28;20039;-72
2023/07/27 00:19:52;;;;;;;10.18;9.30;;;;;;;;;;4987761;28;20030;-73
2023/07/27 00:22:17;;;;;;;11.35;10.38;;;;;;;;;;4986915;28;20038;-73
2023/07/27 00:24:43;;;;;;;10.70;9.90;;;;;;;;;;4987082;28;20125;-73
2023/07/27 00:27:08;;;;;;;10.82;9.82;;;;;;;;;;4988480;28;20062;-73
2023/07/27 00:29:34;;;;;;;11.05;9.95;;;;;;;;;;4987420;28;20074;-73
2023/07/27 00:31:59;;;;;;;10.90;10.10;;;;;;;;;;4986920;28;20042;-72
2023/07/27 00:34:25;;;;;;;10.55;9.75;;;;;;;;;;4987878;28;20049;-73
2023/07/27 00:36:50;;;;;;;10.85;10.05;;;;;;;;;;4986802;28;20394;-73
2023/07/27 00:39:16;;;;;;;11.20;10.10;;;;;;;;;;4989422;28;20742;-73
2023/07/27 00:41:42;;;;;;;10.43;9.60;;;;;;;;;;4985048;28;20037;-73
2023/07/27 00:44:09;;;;;;;11.05;10.07;;;;;;;;;;4986057;28;20044;-73
2023/07/27 00:46:36;;;;;;;10.90;9.98;;;;;;;;;;5003894;28;20085;-72
2023/07/27 00:49:05;;;;;;;11.32;10.43;;;;;;;;;;4987798;28;20037;-72
2023/07/27 00:51:40;;;;;;;11.82;10.57;;;;;;;;;;4984493;28;20487;-72
2023/07/27 00:54:08;;;;;;;10.95;10.15;;;;;;;;;;4986973;28;20034;-72
2023/07/27 00:56:37;;;;;;;14.95;10.40;;;;;;;;;;4987000;28;20458;-72
2023/07/27 00:59:03;;;;;;;10.30;9.50;;;;;;;;;;4986791;28;20030;-72
2023/07/27 01:01:29;;;;;;;11.60;10.70;;;;;;;;;;4985621;28;20401;-73
2023/07/27 01:03:55;;;;;;;11.20;10.30;;;;;;;;;;4989570;28;20046;-72
2023/07/27 01:06:21;;;;;;;11.45;10.57;;;;;;;;;;4983953;28;20133;-72
2023/07/27 01:08:47;;;;;;;11.30;10.30;;;;;;;;;;4986330;28;20029;-72
2023/07/27 01:11:13;;;;;;;11.18;10.27;;;;;;;;;;4987589;28;20410;-72
2023/07/27 01:13:56;;;;;;;11.82;10.60;;;;;;;;;;4985417;28;20042;-72
2023/07/27 01:16:30;;;;;;;11.13;10.32;;;;;;;;;;4984919;28;20652;-72
2023/07/27 01:19:24;;;;;;;10.80;9.90;;;;;;;;;;4985980;28;20038;-72
2023/07/27 01:22:04;;;;;;;11.23;10.20;;;;;;;;;;4984789;28;20034;-72
2023/07/27 01:24:39;;;;;;;11.10;10.00;;;;;;;;;;4984196;28;20038;-72
2023/07/27 01:27:20;;;;;;;11.23;10.23;;;;;;;;;;4985367;28;20049;-72
2023/07/27 01:30:07;;;;;;;11.18;10.07;;;;;;;;;;4987615;28;20030;-72
2023/07/27 01:32:35;;;;;;;11.70;10.63;;;;;;;;;;4984022;28;20106;-72
2023/07/27 01:35:03;;;;;;;11.52;10.52;;;;;;;;;;4986702;28;20565;-72
2023/07/27 01:37:31;;;;;;;10.83;9.93;;;;;;;;;;4985823;28;20038;-72
2023/07/27 01:39:59;;;;;;;12.20;10.02;;;;;;;;;;4986245;28;20324;-72
2023/07/27 01:42:26;;;;;;;10.68;9.57;;;;;;;;;;4982882;28;20226;-73
2023/07/27 01:44:53;;;;;;;11.15;10.02;;;;;;;;;;4986307;28;20030;-73
2023/07/27 01:47:20;;;;;;;11.05;9.88;;;;;;;;;;4985229;28;20036;-73
2023/07/27 01:49:48;;;;;;;10.75;9.70;;;;;;;;;;4984744;28;20103;-73
2023/07/27 01:52:15;;;;;;;10.95;10.10;;;;;;;;;;4984400;28;20766;-71
2023/07/27 01:54:43;;;;;;;10.95;10.15;;;;;;;;;;4984720;28;20621;-71
2023/07/27 01:57:09;;;;;;;11.35;10.35;;;;;;;;;;4985286;28;20129;-73
2023/07/27 01:59:38;;;;;;;11.05;10.05;;;;;;;;;;4985297;28;20034;-73
2023/07/27 02:02:04;;;;;;;11.93;10.90;;;;;;;;;;4980753;28;20050;-73
2023/07/27 02:04:30;;;;;;;11.50;10.32;;;;;;;;;;4984721;28;20054;-70
2023/07/27 02:06:55;;;;;;;11.27;10.35;;;;;;;;;;4985412;28;20707;-73
2023/07/27 02:09:21;;;;;;;12.10;10.50;;;;;;;;;;4985845;28;20033;-73
2023/07/27 02:11:51;;;;;;;12.35;10.88;;;;;;;;;;4984160;28;20034;-72
2023/07/27 02:14:37;;;;;;;10.80;9.88;;;;;;;;;;4983730;28;20030;-72
2023/07/27 02:17:11;;;;;;;10.75;9.77;;;;;;;;;;4983970;28;20502;-72
2023/07/27 02:19:39;;;;;;;10.48;9.68;;;;;;;;;;4983040;28;20035;-73
2023/07/27 02:22:08;;;;;;;11.98;10.82;;;;;;;;;;4983309;28;20080;-72
2023/07/27 02:24:34;;;;;;;11.90;10.65;;;;;;;;;;4988403;28;20508;-73
2023/07/27 02:27:00;;;;;;;11.80;10.70;;;;;;;;;;4988470;28;20057;-72
2023/07/27 02:29:26;;;;;;;10.95;10.02;;;;;;;;;;4986116;28;20053;-72
2023/07/27 02:31:51;;;;;;;11.30;10.23;;;;;;;;;;4977519;28;20030;-72
2023/07/27 02:34:19;;;;;;;12.63;10.70;;;;;;;;;;4987844;28;20523;-73
2023/07/27 02:36:45;;;;;;;11.63;10.27;;;;;;;;;;4988839;28;20042;-72
2023/07/27 02:39:10;;;;;;;11.65;10.50;;;;;;;;;;4989967;28;20145;-73
2023/07/27 02:41:36;;;;;;;11.32;10.43;;;;;;;;;;4987745;28;20034;-72
2023/07/27 02:44:05;;;;;;;11.27;10.37;;;;;;;;;;4991106;28;20121;-72
2023/07/27 02:46:30;;;;;;;11.50;10.38;;;;;;;;;;4990965;28;20376;-73
2023/07/27 02:48:56;;;;;;;11.00;10.20;;;;;;;;;;4987717;28;20060;-73
2023/07/27 02:51:22;;;;;;;10.80;10.00;;;;;;;;;;4986598;28;20140;-73
2023/07/27 02:53:47;;;;;;;10.82;9.93;;;;;;;;;;4987781;28;20030;-72
2023/07/27 02:56:21;;;;;;;11.25;10.23;;;;;;;;;;4988023;28;20049;-72
2023/07/27 02:58:48;;;;;;;10.50;9.63;;;;;;;;;;4989025;28;20122;-72
2023/07/27 03:01:14;;;;;;;11.43;10.43;;;;;;;;;;4986255;28;20105;-73
2023/07/27 03:03:40;;;;;;;11.95;10.35;;;;;;;;;;4985842;28;20031;-73
2023/07/27 03:06:08;;;;;;;12.18;11.10;;;;;;;;;;4985381;28;20034;-73
2023/07/27 03:08:35;;;;;;;11.35;10.25;;;;;;;;;;4985171;28;20046;-73
2023/07/27 03:11:02;;;;;;;10.90;9.90;;;;;;;;;;4986213;28;20026;-73
2023/07/27 03:13:28;;;;;;;10.65;9.65;;;;;;;;;;4987193;28;20128;-72
2023/07/27 03:15:55;;;;;;;10.70;9.85;;;;;;;;;;4984045;28;20116;-73
2023/07/27 03:18:21;;;;;;;10.68;9.93;;;;;;;;;;4983871;28;20401;-72
2023/07/27 03:20:47;;;;;;;10.50;9.63;;;;;;;;;;4981365;28;20050;-72
2023/07/27 03:23:13;;;;;;;10.38;9.57;;;;;;;;;;4985466;28;20042;-72
2023/07/27 03:25:39;;;;;;;10.52;9.68;;;;;;;;;;4985415;28;20034;-72
2023/07/27 03:28:06;;;;;;;10.43;9.40;;;;;;;;;;4985140;28;20034;-72
2023/07/27 03:30:35;;;;;;;10.10;9.30;;;;;;;;;;4982047;28;20030;-72
2023/07/27 03:33:02;;;;;;;10.97;9.97;;;;;;;;;;4984137;28;20038;-72
2023/07/27 03:35:27;;;;;;;10.20;9.35;;;;;;;;;;4986511;28;20038;-72
2023/07/27 03:37:53;;;;;;;11.00;9.98;;;;;;;;;;4983207;28;20093;-72
2023/07/27 03:40:19;;;;;;;10.70;9.90;;;;;;;;;;4982075;28;20030;-72
2023/07/27 03:42:45;;;;;;;10.75;9.82;;;;;;;;;;4983875;28;20045;-72
2023/07/27 03:45:14;;;;;;;10.55;9.73;;;;;;;;;;4970452;28;20486;-72
2023/07/27 03:47:41;;;;;;;9.52;8.77;;;;;;;;;;4978109;28;20450;-72
2023/07/27 03:50:07;;;;;;;10.10;9.30;;;;;;;;;;4983557;28;20549;-72
2023/07/27 03:52:33;;;;;;;10.80;9.80;;;;;;;;;;4983753;28;20038;-72
2023/07/27 03:54:59;;;;;;;8.85;8.15;;;;;;;;;;4983007;28;20034;-72
2023/07/27 03:57:25;;;;;;;10.20;9.30;;;;;;;;;;4982672;28;20042;-72
2023/07/27 03:59:58;;;;;;;9.65;8.93;;;;;;;;;;4982692;28;20061;-72
2023/07/27 04:02:25;;;;;;;10.50;9.55;;;;;;;;;;4985714;28;20035;-72
2023/07/27 04:04:51;;;;;;;10.02;9.23;;;;;;;;;;4986328;28;20042;-73
2023/07/27 04:07:18;;;;;;;11.00;10.10;;;;;;;;;;5000701;28;20151;-73
2023/07/27 04:09:44;;;;;;;9.43;8.70;;;;;;;;;;4987841;28;20033;-72
2023/07/27 04:12:09;;;;;;;10.55;9.52;;;;;;;;;;4984420;28;20034;-72
2023/07/27 04:14:36;;;;;;;10.63;9.73;;;;;;;;;;5005314;28;20073;-72
2023/07/27 04:17:02;;;;;;;11.02;9.98;;;;;;;;;;4990282;28;20092;-72
2023/07/27 04:19:27;;;;;;;10.63;9.82;;;;;;;;;;4989062;28;20042;-73
2023/07/27 04:21:53;;;;;;;11.00;10.10;;;;;;;;;;4987447;28;20514;-72
2023/07/27 04:24:18;;;;;;;11.27;10.27;;;;;;;;;;4987841;28;20038;-72
2023/07/27 04:26:44;;;;;;;11.93;9.90;;;;;;;;;;4986372;28;20096;-73
2023/07/27 04:29:09;;;;;;;10.70;9.80;;;;;;;;;;4986664;28;20030;-72
2023/07/27 04:31:37;;;;;;;10.07;9.38;;;;;;;;;;4982104;28;20516;-72
2023/07/27 04:34:03;;;;;;;10.70;9.60;;;;;;;;;;4987709;28;20720;-71
2023/07/27 04:36:28;;;;;;;11.25;9.88;;;;;;;;;;4985761;28;20556;-72
2023/07/27 04:38:54;;;;;;;10.30;9.50;;;;;;;;;;4984565;28;20038;-72
2023/07/27 04:41:19;;;;;;;9.80;9.00;;;;;;;;;;4987203;28;20117;-72
2023/07/27 04:43:45;;;;;;;10.55;9.65;;;;;;;;;;4989993;28;20681;-72
2023/07/27 04:46:11;;;;;;;10.00;9.10;;;;;;;;;;4989420;28;20045;-73
2023/07/27 04:48:36;;;;;;;10.27;9.48;;;;;;;;;;4983341;28;20541;-73
2023/07/27 04:51:02;;;;;;;10.05;9.15;;;;;;;;;;4987739;28;20394;-72
2023/07/27 04:53:27;;;;;;;9.75;9.05;;;;;;;;;;4987071;28;20046;-72
2023/07/27 04:55:53;;;;;;;10.27;9.48;;;;;;;;;;4987451;28;20034;-71
2023/07/27 04:58:19;;;;;;;10.40;9.35;;;;;;;;;;4985753;28;20046;-72
2023/07/27 05:00:44;;;;;;;11.02;9.93;;;;;;;;;;4985290;28;20046;-73
2023/07/27 05:03:10;;;;;;;10.45;9.55;;;;;;;;;;4989931;28;20112;-72
2023/07/27 05:05:44;;;;;;;10.13;9.38;;;;;;;;;;4990806;28;20043;-72
2023/07/27 05:08:10;;;;;;;10.25;9.55;;;;;;;;;;4983428;28;20482;-71
2023/07/27 05:10:38;;;;;;;10.15;9.45;;;;;;;;;;4987164;28;20026;-71
2023/07/27 05:13:04;;;;;;;10.30;9.50;;;;;;;;;;4985940;28;20077;-71
2023/07/27 05:15:29;;;;;;;11.95;10.80;;;;;;;;;;4988035;28;20065;-72
2023/07/27 05:17:55;;;;;;;10.68;9.80;;;;;;;;;;4988243;28;20285;-71
2023/07/27 05:20:20;;;;;;;10.05;9.35;;;;;;;;;;4986235;28;20034;-72
2023/07/27 05:22:46;;;;;;;11.25;10.02;;;;;;;;;;4986188;28;20049;-71
2023/07/27 05:25:13;;;;;;;10.93;9.93;;;;;;;;;;4984911;28;20085;-72
2023/07/27 05:27:39;;;;;;;10.38;9.52;;;;;;;;;;4989440;28;20041;-71
2023/07/27 05:30:06;;;;;;;11.10;10.30;;;;;;;;;;4983353;28;20509;-71
2023/07/27 05:32:31;;;;;;;11.82;10.68;;;;;;;;;;4985122;28;20117;-72
2023/07/27 05:34:57;;;;;;;11.48;10.48;;;;;;;;;;4985115;28;20132;-72
2023/07/27 05:37:22;;;;;;;10.95;10.05;;;;;;;;;;4986441;28;20030;-72
2023/07/27 05:39:48;;;;;;;11.07;10.13;;;;;;;;;;4985422;28;20690;-72
2023/07/27 05:42:14;;;;;;;10.52;9.73;;;;;;;;;;4986213;28;20733;-72
2023/07/27 05:44:39;;;;;;;10.55;9.82;;;;;;;;;;4984877;28;20042;-72
2023/07/27 05:47:05;;;;;;;11.32;10.13;;;;;;;;;;4986575;28;20070;-72
2023/07/27 05:49:31;;;;;;;10.73;9.95;;;;;;;;;;4988805;28;20041;-72
2023/07/27 05:51:57;;;;;;;11.30;10.52;;;;;;;;;;4986369;28;20034;-72
2023/07/27 05:54:22;;;;;;;10.50;9.80;;;;;;;;;;4984872;28;20433;-72
2023/07/27 05:56:48;;;;;;;10.63;9.82;;;;;;;;;;4987041;28;20031;-72
2023/07/27 05:59:14;;;;;;;10.88;9.98;;;;;;;;;;4986304;28;20045;-72
2023/07/27 06:01:39;;;;;;;10.55;9.70;;;;;;;;;;4986004;28;20056;-71
2023/07/27 06:04:06;;;;;;;10.70;9.75;;;;;;;;;;4985791;28;20046;-72
2023/07/27 06:06:32;;;;;;;10.30;9.60;;;;;;;;;;4987799;28;20125;-72
2023/07/27 06:08:57;;;;;;;10.65;9.85;;;;;;;;;;4985878;28;20197;-72
2023/07/27 06:11:23;;;;;;;10.43;9.63;;;;;;;;;;4983309;28;20495;-72
2023/07/27 06:13:48;;;;;;;10.82;10.00;;;;;;;;;;4984752;28;20475;-72
2023/07/27 06:16:16;;;;;;;10.73;10.00;;;;;;;;;;4985765;28;20434;-72
2023/07/27 06:18:42;;;;;;;10.55;9.70;;;;;;;;;;4983219;28;20402;-72
2023/07/27 06:21:07;;;;;;;10.90;10.05;;;;;;;;;;4985697;28;20030;-72
2023/07/27 06:23:33;;;;;;;10.80;9.90;;;;;;;;;;4985816;28;20049;-72
2023/07/27 06:25:58;;;;;;;11.07;10.00;;;;;;;;;;4985671;28;20045;-72
2023/07/27 06:28:24;;;;;;;10.60;9.80;;;;;;;;;;4983072;28;20564;-72
2023/07/27 06:30:49;;;;;;;10.80;9.90;;;;;;;;;;4985847;28;20041;-72
2023/07/27 06:33:15;;;;;;;11.00;9.88;;;;;;;;;;4985776;28;20034;-72
2023/07/27 06:35:41;;;;;;;10.45;9.65;;;;;;;;;;4985695;28;20036;-72
2023/07/27 06:38:07;;;;;;;10.85;9.80;;;;;;;;;;4984545;28;20042;-73
2023/07/27 06:40:32;;;;;;;10.00;9.30;;;;;;;;;;4983941;28;20566;-73
2023/07/27 06:42:58;;;;;;;10.10;9.40;;;;;;;;;;4984533;28;20042;-73
2023/07/27 06:45:24;;;;;;;10.68;9.80;;;;;;;;;;4985219;28;20065;-73
2023/07/27 06:47:49;;;;;;;10.07;9.35;;;;;;;;;;4985820;28;20409;-73
2023/07/27 06:50:15;;;;;;;9.73;8.73;;;;;;;;;;4984263;28;20455;-72
2023/07/27 06:52:41;;;;;;;9.77;8.98;;;;;;;;;;4986178;28;20039;-71
2023/07/27 06:55:07;;;;;;;10.05;9.23;;;;;;;;;;4988064;28;20502;-73
2023/07/27 06:57:32;;;;;;;9.15;8.45;;;;;;;;;;4985628;28;20053;-73
2023/07/27 06:59:58;;;;;;;9.98;9.10;;;;;;;;;;4982553;28;20058;-73
2023/07/27 07:02:23;;;;;;;9.63;8.93;;;;;;;;;;4984470;28;20034;-71
2023/07/27 07:04:49;;;;;;;9.93;9.23;;;;;;;;;;4985407;28;20101;-71
2023/07/27 07:07:15;;;;;;;10.02;9.20;;;;;;;;;;4983912;28;20068;-71
2023/07/27 07:09:40;;;;;;;9.65;8.93;;;;;;;;;;4984019;28;20042;-71
2023/07/27 07:12:06;;;;;;;9.88;9.07;;;;;;;;;;4988677;28;20043;-71
2023/07/27 07:14:33;;;;;;;9.50;8.80;;;;;;;;;;4987935;28;20041;-70
2023/07/27 07:16:59;;;;;;;9.77;8.85;;;;;;;;;;4988899;28;20038;-71
2023/07/27 07:19:25;;;;;;;9.30;8.50;;;;;;;;;;4988636;28;20138;-74
2023/07/27 07:21:50;;;;;;;9.50;8.70;;;;;;;;;;4987775;28;20141;-70
2023/07/27 07:24:16;;;;;;;9.35;8.68;;;;;;;;;;4987420;28;20038;-71
2023/07/27 07:26:41;;;;;;;9.20;8.60;;;;;;;;;;4988890;28;20042;-70
2023/07/27 07:29:07;;;;;;;9.32;8.65;;;;;;;;;;4988726;28;20034;-70
2023/07/27 07:31:33;;;;;;;9.48;8.70;;;;;;;;;;4987593;28;20117;-70
2023/07/27 07:33:58;;;;;;;10.02;9.32;;;;;;;;;;4988670;28;20042;-70
2023/07/27 07:36:25;;;;;;;9.60;8.90;;;;;;;;;;4988854;28;20129;-71
2023/07/27 07:38:51;;;;;;;10.23;9.27;;;;;;;;;;4987327;28;20049;-70
2023/07/27 07:41:17;;;;;;;10.45;9.55;;;;;;;;;;4988546;28;20399;-71
2023/07/27 07:43:43;;;;;;;10.60;9.50;;;;;;;;;;4988610;28;20045;-71
2023/07/27 07:46:13;;;;;;;10.02;9.27;;;;;;;;;;4987174;28;20038;-71
2023/07/27 07:48:39;;;;;;;10.10;9.18;;;;;;;;;;4987337;28;20030;-71
2023/07/27 07:51:11;;;;;;;10.80;9.50;;;;;;;;;;4987088;28;20056;-73
2023/07/27 07:53:37;;;;;;;10.70;9.90;;;;;;;;;;4988331;28;20132;-73
2023/07/27 07:56:03;;;;;;;10.15;9.23;;;;;;;;;;4987124;28;20670;-73
2023/07/27 07:58:29;;;;;;;9.63;8.93;;;;;;;;;;4986484;28;20383;-71
2023/07/27 08:00:54;;;;;;;10.13;9.23;;;;;;;;;;4988164;28;20041;-71
2023/07/27 08:03:20;;;;;;;9.68;8.93;;;;;;;;;;4988079;28;20062;-73
2023/07/27 08:05:45;;;;;;;9.75;9.05;;;;;;;;;;4986842;28;20030;-72
2023/07/27 08:08:13;;;;;;;9.70;8.88;;;;;;;;;;4985955;28;20084;-73
2023/07/27 08:10:39;;;;;;;9.70;9.00;;;;;;;;;;4986171;28;20441;-73
2023/07/27 08:13:05;;;;;;;10.55;9.55;;;;;;;;;;4984947;28;20049;-73
2023/07/27 08:15:30;;;;;;;10.80;9.90;;;;;;;;;;4984606;28;20580;-73
2023/07/27 08:17:56;;;;;;;10.20;9.40;;;;;;;;;;4986247;28;20034;-73
2023/07/27 08:20:22;;;;;;;9.60;8.90;;;;;;;;;;4985496;28;20035;-72
2023/07/27 08:22:47;;;;;;;10.27;9.23;;;;;;;;;;4984859;28;20122;-71
2023/07/27 08:25:14;;;;;;;10.60;9.70;;;;;;;;;;4985235;28;20113;-72
2023/07/27 08:27:41;;;;;;;9.52;8.80;;;;;;;;;;4990391;28;20109;-71
2023/07/27 08:30:07;;;;;;;9.35;8.57;;;;;;;;;;4987883;28;20030;-72
2023/07/27 08:32:33;;;;;;;9.68;8.80;;;;;;;;;;4984763;28;20118;-72
2023/07/27 08:34:59;;;;;;;9.48;8.75;;;;;;;;;;4985948;28;20038;-71
2023/07/27 08:37:24;;;;;;;9.40;8.60;;;;;;;;;;4985572;28;20038;-71
2023/07/27 08:39:50;;;;;;;9.63;8.82;;;;;;;;;;4984675;28;20563;-72
2023/07/27 08:42:16;;;;;;;10.23;9.32;;;;;;;;;;4983958;28;20038;-71
2023/07/27 08:44:45;;;;;;;13.82;9.57;;;;;;;;;;4985818;28;20042;-72
2023/07/27 08:47:11;;;;;;;;;;;;;;;;;;4984459;28;20030;-72
2023/07/27 08:49:38;;;;;;;9.50;8.80;;;;;;;;;;4985364;28;19929;-72
2023/07/27 08:52:04;;;;;;;9.85;9.05;;;;;;;;;;4982242;28;20046;-71
2023/07/27 08:54:30;;;;;;;11.70;8.80;;;;;;;;;;4985659;28;20169;-71
2023/07/27 08:56:56;;;;;;;9.15;8.45;;;;;;;;;;4984234;28;20034;-71
2023/07/27 08:59:24;;;;;;;9.45;8.55;;;;;;;;;;4985492;28;20035;-71
2023/07/27 09:01:50;;;;;;;9.38;8.75;;;;;;;;;;4985154;28;20121;-71
2023/07/27 09:04:16;;;;;;;9.70;9.00;;;;;;;;;;4984344;28;20545;-71
2023/07/27 09:06:44;;;;;;;9.25;8.65;;;;;;;;;;4984914;28;20034;-72
2023/07/27 09:09:21;;;;;;;10.57;9.80;;;;;;;;;;4985103;28;20073;-72
2023/07/27 09:11:47;;;;;;;9.65;8.98;;;;;;;;;;4984060;28;20305;-72
2023/07/27 09:14:18;;;;;;;10.50;9.70;;;;;;;;;;4985030;28;20038;-71
2023/07/27 09:16:44;;;;;;;10.38;9.43;;;;;;;;;;4984521;28;20038;-71
2023/07/27 09:19:11;;;;;;;9.63;8.93;;;;;;;;;;4984599;28;20130;-71
2023/07/27 09:21:44;;;;;;;9.60;8.90;;;;;;;;;;4983653;28;20048;-72
2023/07/27 09:24:14;;;;;;;9.82;8.98;;;;;;;;;;4983355;28;20589;-71
2023/07/27 09:26:49;;;;;;;9.75;8.93;;;;;;;;;;4984876;28;20118;-72
2023/07/27 09:29:16;;;;;;;10.10;9.10;;;;;;;;;;4982099;28;20038;-72
2023/07/27 09:31:50;;;;;;;9.35;8.55;;;;;;;;;;4983254;28;20033;-72
2023/07/27 09:34:18;;;;;;;9.90;9.20;;;;;;;;;;4984827;28;20038;-72
2023/07/27 09:36:45;;;;;;;10.02;9.23;;;;;;;;;;4985677;28;20038;-72
2023/07/27 09:39:11;;;;;;;10.60;9.90;;;;;;;;;;4984276;28;20133;-72
2023/07/27 09:41:37;;;;;;;9.90;9.30;;;;;;;;;;4984456;28;20752;-72
2023/07/27 09:44:04;;;;;;;10.68;9.65;;;;;;;;;;4983153;28;20046;-71
2023/07/27 09:46:30;;;;;;;9.73;9.05;;;;;;;;;;4985661;28;20034;-72
2023/07/27 09:48:58;;;;;;;10.20;9.40;;;;;;;;;;4983753;28;20050;-72
2023/07/27 09:51:26;;;;;;;10.60;9.60;;;;;;;;;;4986645;28;20065;-72
2023/07/27 09:53:51;;;;;;;10.07;9.23;;;;;;;;;;4986075;28;20513;-72
2023/07/27 09:56:17;;;;;;;10.45;9.75;;;;;;;;;;4987116;28;20034;-72
2023/07/27 09:58:45;;;;;;;9.98;9.27;;;;;;;;;;4985780;28;20123;-73
2023/07/27 10:01:11;;;;;;;9.90;9.30;;;;;;;;;;4981754;28;20112;-72
2023/07/27 10:03:37;;;;;;;10.20;9.40;;;;;;;;;;4985217;28;20042;-72
2023/07/27 10:06:03;;;;;;;9.07;8.50;;;;;;;;;;4988250;28;20030;-72
2023/07/27 10:08:29;;;;;;;9.40;8.60;;;;;;;;;;4985451;28;20478;-72
2023/07/27 10:10:57;;;;;;;9.48;8.73;;;;;;;;;;4984998;28;20113;-72
2023/07/27 10:13:23;;;;;;;10.13;9.13;;;;;;;;;;4985911;28;20046;-73
2023/07/27 10:15:51;;;;;;;10.68;9.82;;;;;;;;;;4981774;28;20044;-71
2023/07/27 10:18:20;;;;;;;9.50;8.90;;;;;;;;;;4985814;28;20583;-72
2023/07/27 10:20:46;;;;;;;10.13;9.43;;;;;;;;;;4985061;28;20039;-72
2023/07/27 10:23:33;;;;;;;9.82;9.13;;;;;;;;;;4984449;28;20045;-72
2023/07/27 10:25:58;;;;;;;10.00;9.20;;;;;;;;;;4984709;28;20064;-72
2023/07/27 10:28:47;;;;;;;9.90;9.15;;;;;;;;;;4981073;28;21177;-72
2023/07/27 10:31:26;;;;;;;10.05;9.20;;;;;;;;;;4987086;28;20045;-72
2023/07/27 10:34:11;;;;;;;9.60;8.90;;;;;;;;;;4997654;28;20034;-72
2023/07/27 10:37:01;;;;;;;9.65;8.85;;;;;;;;;;4985871;28;20066;-72
2023/07/27 10:39:32;;;;;;;10.20;8.93;;;;;;;;;;4980603;28;20042;-72
2023/07/27 10:42:05;;;;;;;9.40;8.73;;;;;;;;;;4981890;28;20047;-72
2023/07/27 10:44:56;;;;;;;10.25;9.23;;;;;;;;;;4988237;28;20050;-73
2023/07/27 10:47:37;;;;;;;10.18;9.38;;;;;;;;;;4989747;28;20062;-72
2023/07/27 10:50:04;;;;;;;9.57;8.98;;;;;;;;;;4988926;28;20040;-72
2023/07/27 10:52:32;;;;;;;9.32;8.73;;;;;;;;;;4986494;28;20046;-72
2023/07/27 10:54:59;;;;;;;9.98;9.18;;;;;;;;;;4986800;28;20042;-72
2023/07/27 10:57:27;;;;;;;9.70;9.02;;;;;;;;;;4992851;28;20042;-72
2023/07/27 10:59:52;;;;;;;10.00;9.15;;;;;;;;;;4991104;28;20030;-72
2023/07/27 11:02:29;;;;;;;10.13;9.50;;;;;;;;;;4989798;28;20030;-73
2023/07/27 11:04:56;;;;;;;10.10;9.40;;;;;;;;;;4986622;28;20594;-72
2023/07/27 11:07:33;;;;;;;9.35;8.75;;;;;;;;;;4985587;28;20042;-72
2023/07/27 11:10:03;;;;;;;9.15;8.55;;;;;;;;;;4984384;28;20167;-73
2023/07/27 11:12:29;;;;;;;10.05;9.02;;;;;;;;;;4987924;28;20464;-72
2023/07/27 11:14:55;;;;;;;8.88;8.25;;;;;;;;;;4988250;28;20121;-72
2023/07/27 11:17:22;;;;;;;9.02;8.30;;;;;;;;;;4987639;28;20034;-72
2023/07/27 11:19:48;;;;;;;9.43;8.73;;;;;;;;;;4988342;28;20042;-73
2023/07/27 11:22:16;;;;;;;9.20;8.50;;;;;;;;;;4990600;28;20109;-71
2023/07/27 11:24:41;;;;;;;9.20;8.60;;;;;;;;;;4987473;28;20034;-73
2023/07/27 11:27:09;;;;;;;8.85;8.35;;;;;;;;;;4988055;28;20129;-72
2023/07/27 11:29:39;;;;;;;9.18;8.48;;;;;;;;;;4984559;28;20109;-72
2023/07/27 11:32:05;;;;;;;9.18;8.57;;;;;;;;;;4988296;28;20046;-72
2023/07/27 11:34:30;;;;;;;9.30;8.50;;;;;;;;;;4987654;28;20096;-72
2023/07/27 11:36:59;;;;;;;9.07;8.48;;;;;;;;;;4987190;28;20053;-72
2023/07/27 11:39:25;;;;;;;;;;;;;;;;;;4988170;28;20494;-72
2023/07/27 11:41:52;;;;;;;9.00;8.20;;;;;;;;;;4988206;28;19925;-72
2023/07/27 11:44:22;;;;;;;9.05;8.45;;;;;;;;;;4986886;28;20081;-72
2023/07/27 11:46:51;;;;;;;9.38;8.65;;;;;;;;;;4986039;28;20537;-72
2023/07/27 11:49:20;;;;;;;9.93;9.20;;;;;;;;;;4988023;28;20045;-73
2023/07/27 11:51:46;;;;;;;9.93;9.13;;;;;;;;;;4986901;28;20042;-72
2023/07/27 11:54:41;;;;;;;9.70;9.00;;;;;;;;;;4987086;28;20030;-72
2023/07/27 11:57:08;;;;;;;9.90;9.10;;;;;;;;;;4944194;28;20062;-72
2023/07/27 11:59:33;;;;;;;9.25;8.65;;;;;;;;;;4945467;29;20040;-73
2023/07/27 12:01:59;;;;;;;9.30;8.70;;;;;;;;;;4945284;29;20086;-72
2023/07/27 12:04:26;;;;;;;9.02;8.32;;;;;;;;;;4944851;29;20535;-73
2023/07/27 12:06:54;;;;;;;9.55;8.75;;;;;;;;;;4945803;29;20551;-72
2023/07/27 12:09:20;;;;;;;9.80;9.10;;;;;;;;;;4945272;29;20039;-72
2023/07/27 12:11:46;;;;;;;9.63;9.02;;;;;;;;;;4943841;28;20058;-72
2023/07/27 12:14:11;;;;;;;10.00;9.10;;;;;;;;;;4945474;29;20047;-73
2023/07/27 12:16:39;;;;;;;9.43;8.77;;;;;;;;;;4945211;29;20039;-72
2023/07/27 12:19:07;;;;;;;10.13;9.18;;;;;;;;;;4944902;29;20078;-72
2023/07/27 12:21:33;;;;;;;10.10;9.25;;;;;;;;;;4928260;29;20051;-72
2023/07/27 12:24:01;;;;;;;10.15;9.13;;;;;;;;;;4945784;29;20045;-72
2023/07/27 12:26:26;;;;;;;10.15;9.13;;;;;;;;;;4945582;29;20059;-72
2023/07/27 12:28:52;;;;;;;11.35;9.20;;;;;;;;;;4943317;28;20868;-73
2023/07/27 12:31:18;;;;;;;9.70;9.10;;;;;;;;;;4945525;29;20047;-72
2023/07/27 12:33:43;;;;;;;11.00;9.75;;;;;;;;;;4952583;28;20046;-72
2023/07/27 12:36:09;;;;;;;9.98;9.13;;;;;;;;;;4986746;28;20069;-72
2023/07/27 12:38:35;;;;;;;10.20;9.50;;;;;;;;;;4985463;28;20122;-73
2023/07/27 12:41:01;;;;;;;9.88;9.18;;;;;;;;;;4990495;28;20030;-73
2023/07/27 12:43:26;;;;;;;10.85;9.45;;;;;;;;;;4990407;28;20046;-73
2023/07/27 12:45:52;;;;;;;10.10;9.32;;;;;;;;;;4986067;28;20113;-72
2023/07/27 12:48:18;;;;;;;10.57;9.65;;;;;;;;;;4984395;28;20045;-72
2023/07/27 12:50:44;;;;;;;10.43;9.70;;;;;;;;;;4986639;28;20053;-72
2023/07/27 12:53:10;;;;;;;10.63;9.85;;;;;;;;;;4987298;28;20034;-73
2023/07/27 12:55:35;;;;;;;10.80;10.00;;;;;;;;;;4984332;28;20092;-72
2023/07/27 12:58:02;;;;;;;10.80;9.95;;;;;;;;;;4984835;28;20117;-72
2023/07/27 13:00:27;;;;;;;11.15;10.43;;;;;;;;;;4985917;28;20050;-73
2023/07/27 13:02:53;;;;;;;10.50;9.85;;;;;;;;;;4986366;28;20107;-73
2023/07/27 13:05:18;;;;;;;10.65;10.05;;;;;;;;;;4985408;28;20441;-73
2023/07/27 13:07:46;;;;;;;11.07;10.38;;;;;;;;;;4981904;28;20038;-73
2023/07/27 13:10:12;;;;;;;10.60;10.00;;;;;;;;;;4981478;28;20057;-73
2023/07/27 13:12:38;;;;;;;11.60;10.90;;;;;;;;;;4984543;28;20049;-73
2023/07/27 13:15:04;;;;;;;10.45;9.82;;;;;;;;;;4984166;28;20038;-73
2023/07/27 13:17:31;;;;;;;10.50;9.80;;;;;;;;;;4985804;28;20056;-73
2023/07/27 13:19:56;;;;;;;11.45;10.52;;;;;;;;;;4983537;28;20030;-72
2023/07/27 13:22:23;;;;;;;10.85;9.95;;;;;;;;;;4985710;28;20045;-72
2023/07/27 13:24:49;;;;;;;10.45;9.75;;;;;;;;;;4985453;28;20061;-72
2023/07/27 13:27:14;;;;;;;10.30;9.50;;;;;;;;;;4986681;28;20058;-72
2023/07/27 13:29:40;;;;;;;10.13;9.52;;;;;;;;;;4985075;28;20030;-72
2023/07/27 13:32:06;;;;;;;10.68;9.88;;;;;;;;;;4986559;28;20042;-71
2023/07/27 13:34:32;;;;;;;10.32;9.63;;;;;;;;;;4984829;28;20092;-71
2023/07/27 13:37:01;;;;;;;10.77;10.07;;;;;;;;;;4983721;28;20042;-71
2023/07/27 13:39:27;;;;;;;10.60;9.88;;;;;;;;;;4982495;28;20162;-71
2023/07/27 13:41:52;;;;;;;10.85;10.05;;;;;;;;;;4984093;28;20647;-72
2023/07/27 13:44:18;;;;;;;11.00;10.23;;;;;;;;;;4983304;28;20509;-72
2023/07/27 13:46:44;;;;;;;10.48;9.88;;;;;;;;;;4982469;28;20069;-71
2023/07/27 13:49:09;;;;;;;10.65;9.95;;;;;;;;;;4981967;28;20070;-72
2023/07/27 13:51:35;;;;;;;10.60;9.80;;;;;;;;;;4982724;28;20030;-72
2023/07/27 13:54:00;;;;;;;11.02;9.98;;;;;;;;;;4981707;28;20117;-71
2023/07/27 13:56:26;;;;;;;10.65;9.95;;;;;;;;;;4981568;28;20046;-72
2023/07/27 13:58:52;;;;;;;11.23;10.20;;;;;;;;;;4981443;28;20058;-71
2023/07/27 14:01:17;;;;;;;10.63;10.02;;;;;;;;;;4982284;28;20540;-71
2023/07/27 14:03:43;;;;;;;10.95;10.15;;;;;;;;;;4980654;28;20650;-72
2023/07/27 14:06:09;;;;;;;11.35;10.60;;;;;;;;;;4982453;28;20061;-72
2023/07/27 14:08:35;;;;;;;11.10;10.30;;;;;;;;;;4983810;28;20455;-72
2023/07/27 14:11:00;;;;;;;10.98;10.18;;;;;;;;;;4984704;28;20565;-72
2023/07/27 14:13:26;;;;;;;12.63;11.43;;;;;;;;;;4983332;28;20046;-72
2023/07/27 14:15:51;;;;;;;11.55;10.82;;;;;;;;;;4984416;28;20041;-71
2023/07/27 14:18:17;;;;;;;11.32;10.38;;;;;;;;;;4984096;28;20525;-72
2023/07/27 14:20:43;;;;;;;11.80;10.70;;;;;;;;;;4984612;28;20038;-72
2023/07/27 14:23:08;;;;;;;11.88;10.85;;;;;;;;;;4983254;28;20117;-72
2023/07/27 14:25:34;;;;;;;11.82;10.98;;;;;;;;;;4984337;28;20078;-72
2023/07/27 14:27:59;;;;;;;11.75;10.85;;;;;;;;;;4984594;28;20394;-71
2023/07/27 14:30:25;;;;;;;11.98;10.98;;;;;;;;;;4983251;28;20081;-71